Time;durP1;ratioP1;P1;durP2;ratioP2;P2;SDS_P1;SDS_P2;PMS_P1;PMS_P2;Temp;Humidity;BMP_temperature;BMP_pressure;BME280_temperature;BME280_humidity;BME280_pressure;Samples;Min_cycle;Max_cycle;Signal;HPM_P1;HPM_P2
2022/04/19 00:00:54;;;;;;;5.15;1.85;;;;;;;5.27;68.60;96566.31;5022262;28;20053;-59
2022/04/19 00:03:21;;;;;;;2.20;1.30;;;;;;;5.30;65.64;96568.38;5023621;28;20519;-61
2022/04/19 00:05:48;;;;;;;5.10;2.30;;;;;;;4.84;67.48;96489.38;5022456;28;20465;-62
2022/04/19 00:08:16;;;;;;;5.05;2.83;;;;;;;4.60;68.51;96458.13;5023680;28;20053;-61
2022/04/19 00:10:43;;;;;;;5.10;2.17;;;;;;;5.08;68.58;96538.69;5023866;28;20056;-60
2022/04/19 00:13:11;;;;;;;4.82;2.47;;;;;;;5.29;69.11;96566.78;5023449;28;20049;-61
2022/04/19 00:15:38;;;;;;;4.22;2.33;;;;;;;5.25;69.90;96568.63;5021786;28;20107;-61
2022/04/19 00:18:07;;;;;;;6.63;2.72;;;;;;;5.25;68.86;96565.91;5023256;28;20119;-61
2022/04/19 00:20:34;;;;;;;3.25;2.20;;;;;;;5.33;67.63;96573.16;5022878;28;20057;-60
2022/04/19 00:23:03;;;;;;;3.42;1.60;;;;;;;5.31;67.87;96550.78;5022415;28;20053;-60
2022/04/19 00:25:30;;;;;;;2.70;1.50;;;;;;;5.29;67.36;96553.06;5022190;28;20487;-62
2022/04/19 00:27:56;;;;;;;3.38;1.70;;;;;;;5.19;66.75;96550.78;5023769;28;20436;-61
2022/04/19 00:30:23;;;;;;;4.97;1.80;;;;;;;5.03;65.96;96519.72;5023034;28;20057;-61
2022/04/19 00:32:50;;;;;;;5.45;2.20;;;;;;;5.31;66.15;96543.31;5023508;28;20049;-61
2022/04/19 00:35:17;;;;;;;8.07;2.88;;;;;;;5.34;65.64;96541.84;5022000;28;20053;-61
2022/04/19 00:37:43;;;;;;;8.88;3.40;;;;;;;5.36;67.12;96547.78;5021979;28;20057;-62
2022/04/19 00:40:10;;;;;;;11.60;4.20;;;;;;;4.98;68.39;96485.09;5021936;28;20050;-61
2022/04/19 00:42:37;;;;;;;8.20;2.50;;;;;;;5.32;67.00;96522.16;5023613;28;20140;-61
2022/04/19 00:45:06;;;;;;;2.88;1.85;;;;;;;5.47;65.54;96535.94;5023555;28;20061;-61
2022/04/19 00:47:33;;;;;;;5.20;1.85;;;;;;;5.37;66.11;96535.66;5023775;28;20065;-60
2022/04/19 00:50:05;;;;;;;4.32;1.90;;;;;;;4.91;66.42;96456.66;5023575;28;20081;-61
2022/04/19 00:52:33;;;;;;;4.35;2.05;;;;;;;5.37;65.86;96535.66;5023360;28;20523;-60
2022/04/19 00:55:01;;;;;;;5.18;3.10;;;;;;;5.44;66.87;96535.81;5023280;28;20076;-61
2022/04/19 00:57:28;;;;;;;5.18;2.45;;;;;;;5.39;68.35;96549.81;5023392;28;20050;-61
2022/04/19 00:59:56;;;;;;;3.05;1.73;;;;;;;5.23;69.20;96525.03;5023275;28;20525;-61
2022/04/19 01:02:25;;;;;;;4.05;2.20;;;;;;;4.82;68.61;96464.25;5021838;28;20087;-61
2022/04/19 01:04:55;;;;;;;8.52;2.55;;;;;;;5.33;69.80;96540.22;5023265;28;20050;-62
2022/04/19 01:07:22;;;;;;;4.93;2.00;;;;;;;4.91;70.79;96484.09;5021531;28;20049;-61
2022/04/19 01:09:48;;;;;;;2.30;1.55;;;;;;;5.18;71.18;96532.72;5023159;28;20060;-62
2022/04/19 01:15:06;;;;;;;2.83;1.70;;;;;;;5.00;71.52;96542.38;5023093;28;20057;-61
2022/04/19 01:17:40;;;;;;;3.08;1.50;;;;;;;4.98;72.15;96533.72;5022863;28;20111;-61
2022/04/19 01:20:08;;;;;;;3.92;1.98;;;;;;;5.11;72.21;96538.00;5024703;28;20501;-61
2022/04/19 01:22:40;;;;;;;3.63;1.58;;;;;;;5.14;72.42;96537.34;5024917;28;20060;-60
2022/04/19 01:25:08;;;;;;;9.48;3.03;;;;;;;5.11;72.94;96595.66;5026583;28;20053;-61
2022/04/19 01:27:35;;;;;;;5.78;2.67;;;;;;;5.17;72.27;96533.88;5025168;28;20061;-60
2022/04/19 01:30:05;;;;;;;9.13;3.00;;;;;;;4.85;72.94;96530.19;5026172;28;20057;-61
2022/04/19 01:32:32;;;;;;;5.45;2.20;;;;;;;4.52;72.36;96486.47;5026429;28;20060;-60
2022/04/19 01:35:15;;;;;;;5.38;2.25;;;;;;;4.85;72.31;96524.72;5024641;28;20060;-60
2022/04/19 01:37:46;;;;;;;7.97;2.67;;;;;;;4.94;72.73;96535.53;5026001;28;20072;-61
2022/04/19 01:40:17;;;;;;;7.63;3.10;;;;;;;4.87;72.28;96510.66;5026369;28;20060;-61
2022/04/19 01:42:48;;;;;;;5.80;2.78;;;;;;;4.98;72.43;96528.22;5026414;28;20057;-63
2022/04/19 01:45:17;;;;;;;4.10;2.03;;;;;;;5.01;73.09;96533.03;5026100;28;20060;-62
2022/04/19 01:47:44;;;;;;;6.07;1.63;;;;;;;4.91;73.13;96538.97;5026046;28;20056;-62
2022/04/19 01:50:15;;;;;;;3.28;1.45;;;;;;;4.90;73.59;96529.94;5025699;28;20076;-63
2022/04/19 01:52:44;;;;;;;5.32;1.70;;;;;;;4.98;74.32;96533.72;5026167;28;20064;-62
2022/04/19 01:55:14;;;;;;;2.05;1.17;;;;;;;4.98;72.93;96533.72;5026190;28;20053;-61
2022/04/19 01:57:46;;;;;;;3.80;1.20;;;;;;;5.02;72.91;96529.91;5026034;28;20531;-62
2022/04/19 02:00:14;;;;;;;2.97;1.08;;;;;;;4.89;71.90;96502.84;5025276;28;20448;-61
2022/04/19 02:02:45;;;;;;;7.82;2.60;;;;;;;4.93;73.25;96492.78;5025585;28;20140;-61
2022/04/19 02:05:13;;;;;;;6.30;1.88;;;;;;;5.04;71.54;96507.63;5024123;28;20053;-59
2022/04/19 02:07:42;;;;;;;4.72;1.88;;;;;;;5.03;72.39;96526.03;5026048;28;20045;-59
2022/04/19 02:10:11;;;;;;;5.63;2.13;;;;;;;4.98;73.95;96525.47;5025878;28;20136;-60
2022/04/19 02:12:38;;;;;;;3.10;1.80;;;;;;;5.02;72.41;96529.91;5024124;28;20072;-60
2022/04/19 02:15:06;;;;;;;4.78;1.65;;;;;;;4.41;72.54;96449.69;5025493;28;20131;-60
2022/04/19 02:17:33;;;;;;;4.47;1.98;;;;;;;5.00;72.82;96536.88;5025628;28;20053;-60
2022/04/19 02:20:01;;;;;;;4.85;2.20;;;;;;;5.11;72.92;96521.53;5023913;28;20061;-59
2022/04/19 02:22:28;;;;;;;4.38;2.10;;;;;;;4.97;74.37;96527.41;5025554;28;20060;-59
2022/04/19 02:24:56;;;;;;;4.55;2.22;;;;;;;4.79;74.09;96503.34;5025569;28;20056;-59
2022/04/19 02:27:25;;;;;;;5.43;2.63;;;;;;;4.89;75.50;96524.78;5025496;28;20357;-62
2022/04/19 02:29:54;;;;;;;3.15;2.13;;;;;;;4.94;76.41;96524.56;5024189;28;20065;-60
2022/04/19 02:32:24;;;;;;;2.88;2.00;;;;;;;4.54;75.56;96447.72;5025320;28;20504;-60
2022/04/19 02:34:52;;;;;;;4.20;2.33;;;;;;;4.77;76.84;96489.16;5025836;28;20085;-60
2022/04/19 02:37:19;;;;;;;7.75;2.47;;;;;;;4.78;78.42;96507.22;5025061;28;20037;-60
2022/04/19 02:39:49;;;;;;;5.53;2.28;;;;;;;4.70;78.81;96495.22;5023577;28;20053;-60
2022/04/19 02:42:17;;;;;;;4.38;2.20;;;;;;;4.68;78.89;96489.28;5024885;28;20499;-61
2022/04/19 02:44:44;;;;;;;6.35;2.35;;;;;;;4.86;80.16;96520.00;5025123;28;20500;-60
2022/04/19 02:47:10;;;;;;;6.10;2.88;;;;;;;4.80;81.25;96521.38;5025291;28;20061;-60
2022/04/19 02:49:37;;;;;;;5.68;2.47;;;;;;;4.78;82.44;96524.47;5023973;28;20049;-60
2022/04/19 02:52:04;;;;;;;11.82;4.20;;;;;;;4.28;82.67;96450.06;5025194;28;20817;-60
2022/04/19 02:54:31;;;;;;;7.82;3.58;;;;;;;3.98;83.41;96402.91;5025016;28;20057;-61
2022/04/19 02:56:58;;;;;;;7.00;3.40;;;;;;;4.30;84.50;96465.00;5025023;28;20127;-60
2022/04/19 02:59:24;;;;;;;8.10;3.17;;;;;;;4.85;84.24;96530.19;5024609;28;20060;-61
2022/04/19 03:01:51;;;;;;;7.40;3.05;;;;;;;4.81;83.58;96533.94;5025326;28;20049;-60
2022/04/19 03:04:20;;;;;;;15.93;5.30;;;;;;;4.75;85.06;96530.66;5023532;28;20521;-62
2022/04/19 03:06:49;;;;;;;10.27;3.83;;;;;;;4.63;86.70;96534.22;5024960;28;20053;-60
2022/04/19 03:09:16;;;;;;;9.65;4.40;;;;;;;4.60;87.41;96543.13;5024953;28;20539;-60
2022/04/19 03:11:43;;;;;;;7.00;2.90;;;;;;;4.58;87.21;96542.66;5024733;28;20056;-60
2022/04/19 03:14:10;;;;;;;10.65;3.47;;;;;;;4.58;87.62;96553.63;5024446;28;20108;-61
2022/04/19 03:16:37;;;;;;;10.65;3.97;;;;;;;4.59;88.15;96552.50;5023348;28;20046;-60
2022/04/19 03:19:03;;;;;;;10.93;3.58;;;;;;;4.21;88.59;96499.97;5024652;28;20288;-60
2022/04/19 03:21:30;;;;;;;5.15;2.53;;;;;;;4.46;88.71;96567.38;5024286;28;20080;-61
2022/04/19 03:29:27;;;;;;;6.10;2.10;;;;;;;4.08;89.68;96501.09;5004382;28;20057;-60
2022/04/19 03:31:55;;;;;;;6.38;3.42;;;;;;;4.43;90.84;96562.56;5004809;28;20080;-59
2022/04/19 03:34:22;;;;;;;9.15;4.82;;;;;;;4.01;91.51;96500.88;5004564;28;20475;-59
2022/04/19 03:36:49;;;;;;;6.60;3.38;;;;;;;4.23;93.45;96554.44;5002435;28;20528;-59
2022/04/19 03:39:15;;;;;;;9.55;4.57;;;;;;;4.13;93.33;96547.47;5003023;28;20410;-60
2022/04/19 03:41:42;;;;;;;18.38;6.00;;;;;;;4.16;94.37;96560.50;5018549;28;20112;-60
2022/04/19 03:44:11;;;;;;;5.97;3.08;;;;;;;4.01;94.60;96554.88;5002599;28;20512;-60
2022/04/19 03:49:27;;;;;;;8.25;3.92;;;;;;;3.89;97.47;96566.59;5004102;28;20053;-59
2022/04/19 03:51:54;;;;;;;12.73;5.35;;;;;;;3.61;96.28;96512.78;5003841;28;20065;-59
2022/04/19 03:54:20;;;;;;;11.68;5.22;;;;;;;3.84;98.57;96561.34;5004199;28;20049;-59
2022/04/19 03:56:47;;;;;;;7.57;3.38;;;;;;;3.82;98.86;96571.84;5003949;28;20046;-59
2022/04/19 03:59:14;;;;;;;8.45;4.00;;;;;;;3.85;98.55;96565.69;5018800;28;20049;-60
2022/04/19 04:01:40;;;;;;;16.17;7.20;;;;;;;3.78;99.04;96568.16;5003431;28;20480;-61
2022/04/19 04:04:07;;;;;;;14.10;6.22;;;;;;;3.84;99.32;96566.03;5002351;28;20057;-61
2022/04/19 04:06:35;;;;;;;15.48;5.18;;;;;;;3.63;99.84;96544.19;5002438;28;20065;-61
2022/04/19 04:09:03;;;;;;;6.38;3.45;;;;;;;3.86;100.00;96561.00;5003600;28;20057;-60
2022/04/19 04:11:29;;;;;;;8.02;3.88;;;;;;;3.93;99.77;96570.28;5002501;28;20500;-61
2022/04/19 04:13:56;;;;;;;9.23;4.20;;;;;;;3.87;98.80;96571.63;5004082;28;20054;-59
2022/04/19 04:16:23;;;;;;;7.93;4.20;;;;;;;4.06;99.39;96555.44;5003966;28;20061;-61
2022/04/19 04:18:50;;;;;;;9.05;4.07;;;;;;;4.13;97.68;96566.66;5004118;28;20131;-60
2022/04/19 04:21:17;;;;;;;8.05;4.28;;;;;;;4.18;98.44;96574.66;5018963;28;20080;-60
2022/04/19 04:23:43;;;;;;;6.78;4.45;;;;;;;3.71;97.23;96517.84;5003504;28;20501;-59
2022/04/19 04:26:10;;;;;;;16.85;5.65;;;;;;;4.34;97.33;96578.34;5003912;28;20053;-60
2022/04/19 04:28:37;;;;;;;10.82;5.35;;;;;;;4.37;97.26;96574.91;5018550;28;20045;-60
2022/04/19 04:31:03;;;;;;;12.38;7.05;;;;;;;4.46;96.54;96572.84;5023448;28;20053;-59
2022/04/19 04:33:30;;;;;;;11.13;5.50;;;;;;;4.49;95.46;96574.09;5023364;28;20057;-60
2022/04/19 04:35:58;;;;;;;8.75;4.53;;;;;;;4.29;94.50;96570.34;5022189;28;20062;-63
2022/04/19 04:38:24;;;;;;;9.02;3.95;;;;;;;4.34;95.54;96572.03;5023379;28;20049;-60
2022/04/19 04:40:51;;;;;;;9.65;4.85;;;;;;;4.34;95.61;96575.59;5023187;28;20057;-60
2022/04/19 04:43:18;;;;;;;16.40;6.80;;;;;;;4.36;95.67;96584.25;5022898;28;20064;-60
2022/04/19 04:45:44;;;;;;;10.60;5.55;;;;;;;4.29;95.56;96578.56;5019869;28;20523;-58
2022/04/19 04:50:56;;;;;;;15.43;7.80;;;;;;;4.49;93.22;96576.84;5023539;28;20061;-58
2022/04/19 04:53:23;;;;;;;19.38;10.60;;;;;;;4.16;94.33;96530.34;5023710;28;20049;-57
2022/04/19 04:55:50;;;;;;;9.00;6.00;;;;;;;4.54;94.30;96582.91;5025321;28;20053;-61
2022/04/19 04:58:17;;;;;;;10.00;5.45;;;;;;;4.50;94.59;96590.19;5026763;28;20065;-58
2022/04/19 05:00:43;;;;;;;12.48;6.93;;;;;;;4.61;94.43;96596.06;5026940;28;20544;-57
2022/04/19 05:03:10;;;;;;;16.13;7.75;;;;;;;4.41;93.13;96559.34;5027619;28;20091;-58
2022/04/19 05:05:37;;;;;;;13.68;7.25;;;;;;;4.66;92.54;96588.38;5027368;28;20049;-61
2022/04/19 05:08:04;;;;;;;16.33;7.55;;;;;;;4.20;93.74;96514.84;5025363;28;20545;-58
2022/04/19 05:10:30;;;;;;;16.30;8.13;;;;;;;4.57;94.00;96574.00;5026808;28;20060;-61
2022/04/19 05:12:57;;;;;;;22.20;10.02;;;;;;;4.86;94.91;96585.84;5026892;28;20188;-61
2022/04/19 05:15:24;;;;;;;7.32;5.35;;;;;;;4.98;92.08;96594.09;5027029;28;20107;-59
2022/04/19 05:17:50;;;;;;;10.95;5.07;;;;;;;4.97;91.42;96586.97;5026762;28;20504;-61
2022/04/19 05:20:17;;;;;;;11.50;4.88;;;;;;;4.41;92.14;96526.47;5025031;28;20058;-61
2022/04/19 05:22:44;;;;;;;10.25;5.18;;;;;;;4.58;90.87;96520.72;5026760;28;20538;-58
2022/04/19 05:25:11;;;;;;;7.95;4.63;;;;;;;5.15;90.33;96594.63;5026682;28;20065;-61
2022/04/19 05:27:37;;;;;;;7.13;4.40;;;;;;;4.93;90.61;96539.44;5027113;28;20829;-57
2022/04/19 05:30:04;;;;;;;10.15;5.53;;;;;;;5.45;90.60;96603.34;5026325;28;20521;-61
2022/04/19 05:32:31;;;;;;;15.43;7.35;;;;;;;5.15;89.37;96538.91;5026375;28;20136;-61
2022/04/19 05:34:58;;;;;;;13.07;5.63;;;;;;;5.65;89.50;96613.34;5024460;28;20057;-58
2022/04/19 05:37:24;;;;;;;15.13;6.50;;;;;;;5.65;86.22;96627.09;5025922;28;20062;-61
2022/04/19 05:39:51;;;;;;;16.85;7.40;;;;;;;5.78;87.12;96609.41;5024733;28;20057;-60
2022/04/19 05:42:18;;;;;;;16.90;7.85;;;;;;;5.92;85.19;96607.09;5024625;28;20057;-63
2022/04/19 05:44:44;;;;;;;18.83;7.95;;;;;;;5.55;84.78;96547.91;5026327;28;20053;-58
2022/04/19 05:47:14;;;;;;;23.98;10.27;;;;;;;6.12;84.72;96630.81;5018394;28;20045;-60
2022/04/19 05:49:40;;;;;;;11.70;5.93;;;;;;;6.17;84.58;96625.06;5023338;28;20053;-63
2022/04/19 05:52:07;;;;;;;12.27;5.28;;;;;;;6.10;82.31;96614.66;5022572;28;20607;-61
2022/04/19 05:54:40;;;;;;;7.70;3.67;;;;;;;5.79;83.65;96559.59;5009863;28;20106;-63
2022/04/19 05:57:09;;;;;;;9.13;4.82;;;;;;;5.96;83.04;96613.47;5006789;28;20050;-61
2022/04/19 05:59:36;;;;;;;6.20;3.45;;;;;;;6.02;79.29;96617.59;5021493;28;20049;-61
2022/04/19 06:04:52;;;;;;;12.27;5.05;;;;;;;6.19;81.02;96611.75;5013005;28;20053;-58
2022/04/19 06:07:20;;;;;;;6.60;3.72;;;;;;;6.18;80.24;96632.13;5017278;28;20062;-58
2022/04/19 06:09:52;;;;;;;7.75;5.13;;;;;;;5.27;81.40;96489.44;5012167;28;20042;-58
2022/04/19 06:12:19;;;;;;;7.57;4.53;;;;;;;5.76;77.56;96538.31;5008150;28;20528;-60
2022/04/19 06:14:46;;;;;;;14.55;7.07;;;;;;;6.37;78.45;96628.72;5005624;28;20053;-59
2022/04/19 06:17:15;;;;;;;7.40;3.85;;;;;;;6.27;76.65;96610.78;5005165;28;20061;-64
2022/04/19 06:19:45;;;;;;;11.48;5.60;;;;;;;6.54;77.08;96634.69;5019571;28;20069;-62
2022/04/19 06:22:13;;;;;;;7.45;5.13;;;;;;;6.73;76.95;96626.53;5025185;28;20053;-62
2022/04/19 06:24:39;;;;;;;8.18;4.25;;;;;;;6.84;78.78;96624.84;5020398;28;20057;-63
2022/04/19 06:27:08;;;;;;;7.78;4.95;;;;;;;7.09;75.71;96633.69;5015533;28;20049;-59
2022/04/19 06:29:35;;;;;;;9.40;5.63;;;;;;;6.52;73.41;96562.72;5003378;28;20441;-59
2022/04/19 06:32:01;;;;;;;8.45;5.90;;;;;;;7.07;75.65;96636.78;5005394;28;20050;-64
2022/04/19 06:34:29;;;;;;;8.23;5.40;;;;;;;6.80;73.93;96637.69;5006120;28;20536;-60
2022/04/19 06:36:56;;;;;;;11.07;6.00;;;;;;;6.30;77.21;96557.84;5006234;28;20567;-63
2022/04/19 06:39:22;;;;;;;7.53;5.55;;;;;;;6.75;78.89;96621.44;5005409;28;20497;-64
2022/04/19 06:41:50;;;;;;;8.02;5.18;;;;;;;7.06;79.21;96646.22;5014959;28;20299;-59
2022/04/19 06:44:17;;;;;;;8.82;5.32;;;;;;;6.63;78.89;96572.03;5020461;28;20555;-59
2022/04/19 06:46:47;;;;;;;9.98;5.20;;;;;;;6.82;79.34;96645.59;5023712;28;20524;-63
2022/04/19 06:49:14;;;;;;;7.93;4.20;;;;;;;6.13;78.33;96508.69;5006424;28;20057;-58
2022/04/19 06:51:41;;;;;;;6.45;4.43;;;;;;;6.98;78.90;96594.88;5003641;28;20049;-63
2022/04/19 06:54:09;;;;;;;6.82;4.65;;;;;;;7.26;74.32;96634.09;5004619;28;20054;-61
2022/04/19 06:56:36;;;;;;;7.97;4.50;;;;;;;6.95;72.64;96578.28;5003088;28;20091;-63
2022/04/19 06:59:03;;;;;;;8.60;4.95;;;;;;;7.23;72.54;96614.72;5010155;28;20156;-63
2022/04/19 07:01:42;;;;;;;6.55;4.07;;;;;;;7.67;75.14;96641.72;5013893;28;20049;-61
2022/04/19 07:04:10;;;;;;;7.38;4.88;;;;;;;7.42;71.88;96610.06;5008912;28;20050;-61
2022/04/19 07:06:37;;;;;;;6.30;3.42;;;;;;;7.47;69.42;96601.50;5019371;28;20416;-64
2022/04/19 07:09:04;;;;;;;7.97;3.88;;;;;;;7.85;70.48;96657.81;5021839;28;20049;-62
2022/04/19 07:11:30;;;;;;;6.80;4.00;;;;;;;8.05;67.07;96653.91;5011850;28;20392;-61
2022/04/19 07:13:57;;;;;;;5.13;3.20;;;;;;;7.23;67.41;96563.19;5005291;28;20497;-65
2022/04/19 07:16:24;;;;;;;8.30;4.45;;;;;;;7.46;69.50;96627.44;5013571;28;20053;-60
2022/04/19 07:18:51;;;;;;;7.60;3.55;;;;;;;7.63;68.41;96659.34;5005492;28;20065;-60
2022/04/19 07:27:08;;;;;;;8.18;5.57;;;;;;;7.44;71.01;96654.59;5021256;28;20072;-61
2022/04/19 07:29:35;;;;;;;7.07;4.45;;;;;;;7.13;75.35;96616.06;5003766;28;20062;-61
2022/04/19 07:32:02;;;;;;;10.45;4.90;;;;;;;5.34;72.86;96344.13;5006148;28;20056;-59
2022/04/19 07:34:29;;;;;;;6.38;3.28;;;;;;;7.59;71.13;96669.47;5008404;28;20121;-61
2022/04/19 07:36:57;;;;;;;7.75;5.13;;;;;;;7.57;67.69;96672.56;5002089;28;20050;-57
2022/04/19 07:39:23;;;;;;;11.52;5.50;;;;;;;7.03;70.92;96629.59;5004539;28;20053;-59
2022/04/19 07:41:50;;;;;;;6.95;4.38;;;;;;;7.14;71.72;96664.50;5011777;28;20084;-59
2022/04/19 07:44:17;;;;;;;8.18;3.75;;;;;;;6.99;71.80;96637.78;5020718;28;20524;-58
2022/04/19 07:46:43;;;;;;;8.60;3.60;;;;;;;7.14;73.64;96658.19;5020901;28;20059;-64
2022/04/19 07:49:10;;;;;;;7.30;4.55;;;;;;;6.63;75.26;96638.06;5018697;28;20536;-59
2022/04/19 07:51:37;;;;;;;8.40;4.00;;;;;;;7.37;75.44;96659.13;5019231;28;20084;-60
2022/04/19 07:54:05;;;;;;;6.15;3.90;;;;;;;7.55;74.21;96658.38;5016136;28;20512;-62
2022/04/19 07:56:32;;;;;;;7.55;3.22;;;;;;;7.33;72.45;96612.19;5003123;28;20053;-60
2022/04/19 07:58:58;;;;;;;6.57;3.90;;;;;;;7.79;69.21;96651.00;5003474;28;20477;-61
2022/04/19 08:01:30;;;;;;;7.85;4.38;;;;;;;7.34;70.18;96613.81;5002765;28;20064;-64
2022/04/19 08:03:58;;;;;;;26.88;12.82;;;;;;;7.89;71.55;96642.16;5001718;28;20046;-59
2022/04/19 08:06:24;;;;;;;6.63;3.38;;;;;;;7.07;68.77;96658.00;5002956;28;20543;-60
2022/04/19 08:08:51;;;;;;;33.38;21.60;;;;;;;6.79;72.69;96570.06;5001963;28;20065;-60
2022/04/19 08:11:18;;;;;;;13.23;11.60;;;;;;;7.84;70.37;96653.47;5003413;28;20479;-62
2022/04/19 08:13:44;;;;;;;11.23;6.25;;;;;;;8.06;72.41;96652.75;5003538;28;20058;-63
2022/04/19 08:16:11;;;;;;;9.85;5.53;;;;;;;8.50;71.33;96659.56;5008654;28;20070;-59
2022/04/19 08:18:38;;;;;;;6.75;3.97;;;;;;;8.67;68.32;96654.34;5018897;28;20053;-64
2022/04/19 08:21:05;;;;;;;5.75;4.30;;;;;;;9.12;66.75;96653.53;5020291;28;20056;-64
2022/04/19 08:23:31;;;;;;;5.88;3.42;;;;;;;8.73;63.64;96552.69;5021981;28;20049;-62
2022/04/19 08:25:58;;;;;;;7.13;4.18;;;;;;;9.50;63.64;96636.75;5020916;28;20083;-60
2022/04/19 08:28:25;;;;;;;22.30;14.32;;;;;;;9.58;63.64;96610.78;5012550;28;20140;-63
2022/04/19 08:30:51;;;;;;;8.02;5.68;;;;;;;9.63;64.33;96654.72;5023695;28;20393;-62
2022/04/19 08:33:18;;;;;;;20.70;8.82;;;;;;;9.39;62.77;96635.00;5016203;28;20075;-58
2022/04/19 08:35:45;;;;;;;9.05;6.15;;;;;;;9.64;63.05;96648.00;5019079;28;20054;-57
2022/04/19 08:38:11;;;;;;;7.72;5.10;;;;;;;9.89;60.56;96654.69;5006904;28;20046;-64
2022/04/19 08:40:38;;;;;;;7.95;5.07;;;;;;;9.52;61.94;96661.25;5018606;28;20474;-61
2022/04/19 08:43:05;;;;;;;11.77;7.13;;;;;;;9.65;62.75;96624.72;5007726;28;20053;-66
2022/04/19 08:45:33;;;;;;;6.40;5.05;;;;;;;9.75;61.64;96604.72;5006650;28;20046;-60
2022/04/19 08:48:01;;;;;;;7.15;4.20;;;;;;;10.22;57.40;96646.44;5024991;28;20574;-62
2022/04/19 08:50:29;;;;;;;33.08;19.33;;;;;;;10.15;60.77;96640.81;5026809;28;20053;-61
2022/04/19 08:58:29;;;;;;;15.90;10.05;;;;;;;10.99;56.32;96645.63;5025886;28;20057;-63
2022/04/19 09:00:55;;;;;;;17.98;11.88;;;;;;;11.02;57.52;96647.66;5026213;28;20088;-63
2022/04/19 09:03:22;;;;;;;6.88;5.07;;;;;;;11.02;55.78;96617.19;5024739;28;20076;-61
2022/04/19 09:05:51;;;;;;;7.60;4.65;;;;;;;11.07;53.84;96614.03;5026034;28;20092;-61
2022/04/19 09:08:19;;;;;;;10.13;5.20;;;;;;;10.95;55.79;96640.09;5026391;28;20045;-62
2022/04/19 09:10:46;;;;;;;7.80;5.75;;;;;;;10.90;54.97;96637.66;5026652;28;20056;-61
2022/04/19 09:13:21;;;;;;;8.00;5.28;;;;;;;10.29;56.77;96649.28;5023708;28;20045;-63
2022/04/19 09:15:49;;;;;;;7.53;5.43;;;;;;;10.23;60.51;96645.25;5024556;28;20068;-63
2022/04/19 09:18:24;;;;;;;14.77;9.35;;;;;;;10.44;58.50;96648.28;5024424;28;20057;-59
2022/04/19 09:20:52;;;;;;;10.93;7.55;;;;;;;10.66;59.91;96655.63;5025828;28;20140;-62
2022/04/19 09:23:20;;;;;;;11.10;6.85;;;;;;;10.42;61.04;96647.03;5025641;28;20053;-61
2022/04/19 09:25:51;;;;;;;8.10;5.68;;;;;;;10.16;58.78;96642.41;5024236;28;20594;-62
2022/04/19 09:28:21;;;;;;;11.15;6.25;;;;;;;10.14;59.37;96650.31;5025698;28;20093;-62
2022/04/19 09:30:56;;;;;;;18.50;12.95;;;;;;;10.28;58.58;96650.47;5026098;28;20053;-62
2022/04/19 09:33:29;;;;;;;12.07;8.60;;;;;;;10.38;58.40;96649.00;5025200;28;20516;-61
2022/04/19 09:35:58;;;;;;;5.90;4.90;;;;;;;9.01;59.52;96503.38;5021306;28;20049;-60
2022/04/19 09:38:36;;;;;;;6.32;4.20;;;;;;;9.77;57.12;96618.94;5023998;28;20326;-62
2022/04/19 09:41:04;;;;;;;5.50;4.60;;;;;;;9.68;59.46;96604.63;5024304;28;20050;-63
2022/04/19 09:44:23;;;;;;;7.47;4.82;;;;;;;9.38;61.50;96628.69;5010050;28;20057;-60
2022/04/19 09:47:10;;;;;;;10.65;7.18;;;;;;;9.46;62.72;96651.69;5028848;28;20504;-60
2022/04/19 09:49:50;;;;;;;11.55;6.70;;;;;;;9.71;62.86;96650.88;5021596;28;20065;-65
2022/04/19 09:52:22;;;;;;;7.35;5.05;;;;;;;9.87;62.22;96651.50;5021756;28;20056;-60
2022/04/19 09:55:08;;;;;;;6.90;4.95;;;;;;;9.50;62.09;96614.63;5022467;28;20053;-62
2022/04/19 09:57:37;;;;;;;6.20;4.88;;;;;;;8.28;62.06;96439.59;5020834;28;20050;-66
2022/04/19 10:00:09;;;;;;;9.55;6.38;;;;;;;9.83;63.06;96634.03;5022045;28;20124;-65
2022/04/19 10:08:13;;;;;;;8.20;5.55;;;;;;;9.60;64.16;96594.63;5027036;28;20046;-63
2022/04/19 10:10:44;;;;;;;7.97;5.68;;;;;;;9.84;62.95;96618.25;5024251;28;20068;-62
2022/04/19 10:13:12;;;;;;;7.90;4.97;;;;;;;9.42;61.87;96601.09;5021450;28;20053;-65
2022/04/19 10:15:42;;;;;;;6.28;5.10;;;;;;;9.25;62.49;96654.94;5014331;28;20049;-61
2022/04/19 10:18:10;;;;;;;6.72;5.57;;;;;;;8.73;65.11;96580.28;5024956;28;20128;-65
2022/04/19 10:20:41;;;;;;;7.38;6.07;;;;;;;9.03;64.19;96658.50;5022361;28;20049;-63
2022/04/19 10:23:09;;;;;;;13.60;9.90;;;;;;;8.62;65.87;96637.28;5007028;28;20061;-58
2022/04/19 10:25:44;;;;;;;7.47;5.63;;;;;;;8.70;68.51;96659.16;5019369;28;20057;-62
2022/04/19 10:28:13;;;;;;;7.28;5.38;;;;;;;8.78;68.68;96682.16;5013228;28;20945;-63
2022/04/19 10:30:52;;;;;;;6.90;5.28;;;;;;;8.14;66.97;96602.09;5012065;28;20064;-62
2022/04/19 10:33:38;;;;;;;9.85;5.45;;;;;;;8.72;66.63;96661.53;5013883;28;20089;-62
2022/04/19 10:36:15;;;;;;;7.43;5.40;;;;;;;9.04;65.55;96660.13;5015670;28;20548;-64
2022/04/19 10:38:43;;;;;;;8.18;5.30;;;;;;;9.18;71.06;96652.84;5011106;28;20056;-62
2022/04/19 10:41:10;;;;;;;10.98;6.68;;;;;;;8.91;68.58;96570.34;5014112;28;20056;-62
2022/04/19 10:43:37;;;;;;;9.80;7.25;;;;;;;8.60;71.05;96466.50;5016994;28;20053;-64
2022/04/19 10:46:20;;;;;;;10.85;6.80;;;;;;;10.38;67.13;96657.31;5004351;28;20054;-64
2022/04/19 10:49:25;;;;;;;8.32;6.65;;;;;;;10.51;68.81;96653.88;5003498;28;20080;-65
2022/04/19 10:52:01;;;;;;;;;;;;;;;10.57;58.21;96657.88;5016956;28;20071;-62
2022/04/19 10:55:06;;;;;;;6.97;5.80;;;;;;;10.73;58.41;96655.69;5014565;28;19932;-64
2022/04/19 11:00:34;;;;;;;15.60;9.93;;;;;;;10.54;67.79;96652.34;5005574;28;20520;-64
2022/04/19 11:03:33;;;;;;;10.65;6.90;;;;;;;10.52;63.42;96655.50;5007106;28;20057;-62
2022/04/19 11:06:03;;;;;;;12.80;9.02;;;;;;;10.65;66.07;96648.47;5004290;28;20061;-63
2022/04/19 11:08:38;;;;;;;9.32;6.43;;;;;;;9.81;61.60;96520.25;5014499;28;20668;-66
2022/04/19 11:11:07;;;;;;;8.15;6.40;;;;;;;10.62;59.84;96643.72;5017653;28;20120;-64
2022/04/19 11:13:40;;;;;;;9.90;6.32;;;;;;;11.05;57.75;96652.44;5018268;28;20057;-65
2022/04/19 11:16:08;;;;;;;9.18;6.78;;;;;;;11.47;57.21;96655.53;5013425;28;20059;-65
2022/04/19 11:18:39;;;;;;;15.10;9.55;;;;;;;11.64;59.35;96654.91;5021831;28;20050;-63
2022/04/19 11:21:45;;;;;;;8.20;5.97;;;;;;;12.13;57.33;96641.28;5016179;28;20049;-65
2022/04/19 11:24:52;;;;;;;8.52;6.00;;;;;;;12.31;57.47;96638.59;5012004;28;20129;-63
2022/04/19 11:27:19;;;;;;;5.75;4.75;;;;;;;12.15;56.03;96650.03;5009797;28;20049;-63
2022/04/19 11:29:48;;;;;;;8.20;6.18;;;;;;;9.98;55.31;96286.44;5011117;28;20410;-66
2022/04/19 11:32:25;;;;;;;6.72;4.65;;;;;;;10.73;56.97;96487.91;5010254;28;20176;-65
2022/04/19 11:35:02;;;;;;;6.43;4.78;;;;;;;11.59;55.05;96541.50;5007581;28;20065;-63
2022/04/19 11:37:30;;;;;;;8.27;5.35;;;;;;;12.05;53.92;96584.16;5017062;28;20050;-66
2022/04/19 11:48:29;;;;;;;7.10;5.53;;;;;;;11.84;54.82;96592.38;5017418;28;20049;-66
2022/04/19 11:51:22;;;;;;;4.43;4.03;;;;;;;9.82;53.66;96227.84;5016001;28;20159;-65
2022/04/19 11:53:50;;;;;;;5.43;4.68;;;;;;;12.21;54.94;96634.59;5012726;28;20054;-65
2022/04/19 11:56:17;;;;;;;6.90;4.72;;;;;;;11.65;53.30;96571.28;5001575;28;20493;-65
2022/04/19 11:58:50;;;;;;;6.07;4.70;;;;;;;12.75;53.40;96603.78;5011461;28;20060;-62
2022/04/19 12:01:17;;;;;;;;;;;;;;;13.57;53.64;96611.75;4984383;22;20054;-64
2022/04/19 12:03:44;;;;;;;7.13;4.80;;;;;;;13.05;50.71;96612.59;4939886;28;19925;-59
2022/04/19 12:06:14;;;;;;;8.07;6.03;;;;;;;12.00;53.22;96520.66;4931796;28;21225;-62
2022/04/19 12:08:42;;;;;;;9.57;5.95;;;;;;;12.16;52.52;96582.19;4927691;28;20093;-61
2022/04/19 12:11:13;;;;;;;3.05;2.75;;;;;;;10.53;54.16;96587.03;4939143;28;20077;-62
2022/04/19 12:13:42;;;;;;;5.15;3.80;;;;;;;10.65;54.60;96584.78;4933294;28;20054;-66
2022/04/19 12:16:31;;;;;;;7.97;4.10;;;;;;;10.34;56.47;96624.03;4931795;28;20095;-64
2022/04/19 12:19:00;;;;;;;4.72;4.03;;;;;;;9.52;56.83;96568.06;4927956;28;20046;-62
2022/04/19 12:21:34;;;;;;;5.53;4.13;;;;;;;9.35;56.55;96618.38;4938402;28;20097;-65
2022/04/19 12:24:01;;;;;;;5.68;4.50;;;;;;;8.81;56.83;96521.25;4934083;28;20133;-59
2022/04/19 12:26:27;;;;;;;4.50;4.10;;;;;;;9.61;56.33;96612.03;4934815;28;20125;-60
2022/04/19 12:29:07;;;;;;;9.07;5.38;;;;;;;10.21;57.91;96591.47;4935761;28;20413;-59
2022/04/19 12:31:39;;;;;;;5.93;4.50;;;;;;;11.01;55.73;96615.56;4932288;28;20053;-60
2022/04/19 12:34:08;;;;;;;6.35;4.60;;;;;;;10.78;54.40;96545.72;4933779;28;20082;-59